Time;durP1;ratioP1;P1;durP2;ratioP2;P2;SDS_P1;SDS_P2;PMS_P1;PMS_P2;Temp;Humidity;BMP_temperature;BMP_pressure;BME280_temperature;BME280_humidity;BME280_pressure;Samples;Min_cycle;Max_cycle;Signal;HPM_P1;HPM_P2
2023/06/06 00:04:09;;;;;;;2.40;1.50;;;;;;;14.69;43.65;99876.90;437069;1253;138885;-63
2023/06/06 00:14:18;;;;;;;5.20;2.70;;;;;;;14.48;44.06;99874.64;436792;1256;139128;-65
2023/06/06 00:24:25;;;;;;;3.60;2.30;;;;;;;14.25;44.67;99873.52;437106;1254;139504;-63
2023/06/06 00:34:30;;;;;;;2.90;2.00;;;;;;;14.05;45.01;99862.00;436932;1255;138960;-63
2023/06/06 00:44:36;;;;;;;3.20;2.10;;;;;;;13.91;45.30;99855.45;436899;1254;138439;-66
2023/06/06 00:54:43;;;;;;;6.40;2.70;;;;;;;13.81;45.46;99852.80;436551;1255;138506;-63
2023/06/06 01:04:50;;;;;;;4.70;2.20;;;;;;;13.77;45.65;99846.75;436595;1253;138254;-64
2023/06/06 01:15:01;;;;;;;4.20;2.60;;;;;;;13.72;45.87;99847.16;436729;1251;139029;-64
2023/06/06 01:25:09;;;;;;;4.30;1.90;;;;;;;13.64;45.97;99843.84;436734;1251;138809;-63
2023/06/06 01:35:20;;;;;;;6.40;2.30;;;;;;;13.52;46.26;99843.84;436832;1253;139230;-64
2023/06/06 01:45:29;;;;;;;3.10;2.10;;;;;;;13.40;46.31;99847.66;436715;1253;139270;-64
2023/06/06 01:55:36;;;;;;;3.50;1.70;;;;;;;13.26;46.42;99851.27;437191;1253;138829;-64
2023/06/06 02:05:42;;;;;;;2.10;1.90;;;;;;;13.15;46.53;99847.11;437152;1252;138684;-64
2023/06/06 02:15:48;;;;;;;3.60;2.10;;;;;;;13.05;46.60;99842.34;437410;1253;139028;-64
2023/06/06 02:25:55;;;;;;;3.40;2.10;;;;;;;13.07;46.50;99836.63;436913;1253;140219;-65
2023/06/06 02:36:01;;;;;;;2.60;1.80;;;;;;;13.07;46.58;99838.93;436816;1253;140395;-64
2023/06/06 02:46:08;;;;;;;4.00;2.10;;;;;;;13.15;46.43;99840.05;437609;1253;138526;-64
2023/06/06 02:56:14;;;;;;;2.30;1.50;;;;;;;13.51;46.40;99837.55;436891;1253;138700;-64
2023/06/06 03:06:21;;;;;;;3.50;2.20;;;;;;;14.68;45.75;99840.23;437012;1253;140904;-65
2023/06/06 03:16:28;;;;;;;3.20;2.30;;;;;;;16.93;42.97;99839.39;436769;1253;138386;-64
2023/06/06 03:26:34;;;;;;;5.60;2.50;;;;;;;17.79;40.89;99838.30;436739;1254;138709;-64
2023/06/06 03:36:40;;;;;;;9.10;2.10;;;;;;;18.07;39.77;99842.21;436679;1251;138818;-64
2023/06/06 03:46:46;;;;;;;2.50;1.90;;;;;;;17.69;39.22;99836.89;436620;1253;138870;-64
2023/06/06 03:56:51;;;;;;;3.40;1.90;;;;;;;18.18;39.24;99838.56;436571;1254;138265;-65
2023/06/06 04:06:59;;;;;;;5.20;2.00;;;;;;;24.33;34.63;99833.35;436476;1253;139154;-65
2023/06/06 04:17:07;;;;;;;3.50;2.40;;;;;;;29.69;29.70;99828.52;436848;1253;138281;-65
2023/06/06 04:27:16;;;;;;;4.10;1.80;;;;;;;33.97;25.32;99822.09;437816;1251;139495;-66
2023/06/06 04:37:22;;;;;;;4.10;2.00;;;;;;;35.30;22.59;99819.90;436951;1251;139130;-66
2023/06/06 04:47:28;;;;;;;10.50;2.10;;;;;;;36.43;20.37;99822.73;436602;1253;140160;-66
2023/06/06 04:57:34;;;;;;;7.10;2.70;;;;;;;37.24;19.23;99817.08;436956;1254;139220;-65
2023/06/06 05:07:40;;;;;;;7.30;2.30;;;;;;;38.43;18.09;99811.77;436483;1252;139165;-65
2023/06/06 05:17:57;;;;;;;4.50;1.90;;;;;;;39.99;16.90;99817.19;436672;1254;139217;-66
2023/06/06 05:28:04;;;;;;;2.00;1.70;;;;;;;39.74;16.29;99815.96;437030;1254;139165;-66
2023/06/06 05:38:10;;;;;;;4.70;1.90;;;;;;;37.08;17.09;99812.02;436721;1254;140131;-65
2023/06/06 05:48:16;;;;;;;4.60;2.00;;;;;;;36.95;17.41;99816.33;436925;1252;138444;-66
2023/06/06 05:58:21;;;;;;;6.70;2.70;;;;;;;38.55;16.77;99816.64;437018;1252;138917;-65
2023/06/06 06:08:27;;;;;;;5.20;2.00;;;;;;;38.51;16.13;99818.86;436657;1254;139624;-64
2023/06/06 06:18:33;;;;;;;6.20;2.10;;;;;;;36.30;17.03;99810.48;436517;1255;139281;-65
2023/06/06 06:28:39;;;;;;;2.90;1.70;;;;;;;37.44;16.91;99809.41;436752;1253;138554;-65
2023/06/06 06:38:45;;;;;;;4.20;1.50;;;;;;;38.79;16.21;99816.59;436241;1251;138879;-66
2023/06/06 06:48:50;;;;;;;2.10;1.40;;;;;;;39.57;15.68;99824.95;436103;1251;139016;-66
2023/06/06 06:58:57;;;;;;;1.40;1.10;;;;;;;39.40;15.64;99818.23;436564;1253;141479;-65
2023/06/06 07:09:05;;;;;;;3.30;1.30;;;;;;;40.15;15.28;99816.66;436627;1252;138444;-64
2023/06/06 07:19:10;;;;;;;3.10;1.60;;;;;;;39.33;15.48;99810.84;436483;1254;156166;-65
2023/06/06 07:29:16;;;;;;;2.40;1.00;;;;;;;40.17;15.38;99807.89;436837;1254;139672;-66
2023/06/06 07:39:22;;;;;;;3.10;1.10;;;;;;;41.81;14.62;99802.66;436564;1254;138435;-66
2023/06/06 07:49:28;;;;;;;1.20;1.10;;;;;;;42.40;14.08;99806.13;436390;1253;139262;-67
2023/06/06 07:59:34;;;;;;;5.70;1.70;;;;;;;39.48;14.65;99799.17;436357;1253;139244;-64
2023/06/06 08:09:40;;;;;;;2.50;1.50;;;;;;;35.26;16.48;99794.87;436428;1254;138424;-64
2023/06/06 08:19:45;;;;;;;2.90;1.50;;;;;;;32.82;18.30;99784.95;436108;1251;138844;-65
2023/06/06 08:29:50;;;;;;;;;;;;;;;31.41;19.77;99788.52;436251;1251;139151;-64
2023/06/06 08:39:55;;;;;;;2.10;1.40;;;;;;;30.90;20.38;99781.65;436120;1254;125068;-64
2023/06/06 08:50:04;;;;;;;2.40;1.10;;;;;;;30.50;20.72;99776.48;435964;1251;139093;-64
2023/06/06 09:00:20;;;;;;;4.90;1.10;;;;;;;29.84;20.60;99771.01;436139;1251;139950;-64
2023/06/06 09:10:26;;;;;;;2.70;2.10;;;;;;;29.68;20.82;99762.47;436482;1254;139587;-64
2023/06/06 09:20:34;;;;;;;2.00;1.80;;;;;;;29.65;21.31;99751.41;435932;1254;139518;-64
2023/06/06 09:30:39;;;;;;;1.50;1.40;;;;;;;30.01;21.09;99748.23;436093;1254;139204;-65
2023/06/06 09:40:49;;;;;;;5.60;2.30;;;;;;;29.51;21.37;99749.73;436376;1251;139905;-64
2023/06/06 09:50:55;;;;;;;1.80;1.60;;;;;;;29.02;21.78;99748.50;436446;1253;139084;-64
2023/06/06 10:01:02;;;;;;;3.70;1.30;;;;;;;29.05;21.99;99737.85;435726;1251;139555;-65
2023/06/06 10:11:08;;;;;;;2.00;1.70;;;;;;;29.08;22.12;99730.34;436545;1251;138431;-64
2023/06/06 10:21:14;;;;;;;2.50;1.40;;;;;;;28.59;22.34;99728.98;436210;1251;138475;-63
2023/06/06 10:31:30;;;;;;;3.10;2.00;;;;;;;28.44;22.64;99724.88;436053;1251;138817;-64
2023/06/06 10:41:53;;;;;;;2.10;1.60;;;;;;;28.19;23.02;99722.20;436900;1254;138444;-65
2023/06/06 10:52:07;;;;;;;2.30;1.70;;;;;;;28.39;22.72;99717.67;436459;1251;140045;-64
2023/06/06 11:02:34;;;;;;;2.80;1.60;;;;;;;28.17;22.61;99712.08;436371;1251;139469;-66
2023/06/06 11:12:40;;;;;;;2.60;2.20;;;;;;;27.89;22.91;99701.04;436156;1251;138373;-64
2023/06/06 11:22:53;;;;;;;4.30;1.60;;;;;;;27.25;23.56;99691.98;436466;1251;138474;-65
2023/06/06 11:32:59;;;;;;;3.50;2.50;;;;;;;26.69;23.99;99689.31;436466;1250;139322;-64
2023/06/06 11:43:05;;;;;;;13.20;2.90;;;;;;;26.30;24.50;99678.33;435899;1254;140009;-67
2023/06/06 11:53:11;;;;;;;2.30;1.70;;;;;;;26.10;24.87;99679.13;436035;1251;138653;-65
2023/06/06 12:03:18;;;;;;;2.90;1.40;;;;;;;25.91;25.11;99669.41;436114;1254;138358;-64
2023/06/06 12:13:34;;;;;;;3.80;1.70;;;;;;;25.93;25.47;99669.23;436955;1251;139200;-65
2023/06/06 12:23:42;;;;;;;1.80;1.60;;;;;;;26.09;25.39;99653.41;436121;1254;138666;-65
2023/06/06 12:33:48;;;;;;;8.00;1.80;;;;;;;26.18;25.43;99654.59;436548;1254;138927;-65
2023/06/06 12:43:55;;;;;;;3.80;2.60;;;;;;;26.27;25.65;99632.20;436498;1251;138861;-65
2023/06/06 12:54:01;;;;;;;4.40;2.30;;;;;;;26.68;25.62;99633.80;436664;1254;139898;-64
2023/06/06 13:04:07;;;;;;;4.40;2.90;;;;;;;26.94;25.47;99634.31;436279;1251;138512;-65
2023/06/06 13:14:13;;;;;;;3.50;2.60;;;;;;;27.07;25.32;99629.91;436269;1251;138322;-65
2023/06/06 13:24:19;;;;;;;3.70;3.00;;;;;;;27.32;25.55;99625.52;437418;1251;138542;-64
2023/06/06 13:34:25;;;;;;;3.00;2.20;;;;;;;27.73;25.43;99618.02;436458;1251;139000;-70
2023/06/06 13:44:31;;;;;;;4.00;2.10;;;;;;;27.92;25.60;99612.87;436147;1250;139401;-69
2023/06/06 13:54:37;;;;;;;3.80;2.20;;;;;;;27.72;25.86;99598.98;436500;1251;138889;-71
2023/06/06 14:04:43;;;;;;;4.30;3.30;;;;;;;27.42;26.09;99591.63;436491;1254;140790;-71
2023/06/06 14:14:49;;;;;;;4.00;2.50;;;;;;;27.26;26.28;99596.83;436825;1251;138838;-70
2023/06/06 14:24:56;;;;;;;3.00;2.00;;;;;;;26.82;26.84;99596.32;436362;1254;139071;-70
2023/06/06 14:35:01;;;;;;;;;;;;;;;26.45;27.26;99592.73;436340;1251;138540;-70
2023/06/06 14:45:11;;;;;;;4.10;1.90;;;;;;;26.25;27.57;99585.17;436154;1251;128542;-70
2023/06/06 14:55:16;;;;;;;;;;;;;;;26.09;27.84;99578.08;436252;1254;139059;-71
2023/06/06 15:05:22;;;;;;;3.40;2.20;;;;;;;25.80;28.18;99572.98;436681;1251;125362;-71
2023/06/06 15:15:28;;;;;;;4.40;2.20;;;;;;;25.36;28.72;99572.94;436235;1251;138908;-69
2023/06/06 15:25:33;;;;;;;5.90;2.80;;;;;;;25.12;28.92;99567.40;436228;1254;140258;-70
2023/06/06 15:35:39;;;;;;;8.10;3.30;;;;;;;24.95;29.20;99564.31;436450;1251;138271;-72
2023/06/06 15:45:46;;;;;;;3.00;2.50;;;;;;;24.78;29.59;99560.65;436535;1255;139171;-70
2023/06/06 15:55:52;;;;;;;4.40;2.10;;;;;;;24.62;29.89;99555.41;436921;1254;139340;-70
2023/06/06 16:05:57;;;;;;;2.60;2.00;;;;;;;24.63;30.10;99552.61;436529;1251;138877;-64
2023/06/06 16:16:03;;;;;;;2.90;2.60;;;;;;;24.64;30.19;99550.98;436647;1253;138519;-65
2023/06/06 16:26:09;;;;;;;3.40;2.40;;;;;;;24.49;30.18;99548.71;436582;1251;138357;-64
2023/06/06 16:36:16;;;;;;;4.00;2.40;;;;;;;24.31;30.47;99547.08;436475;1251;140469;-65
2023/06/06 16:46:23;;;;;;;5.10;2.40;;;;;;;24.12;30.57;99556.72;437141;1250;139202;-63
2023/06/06 16:56:29;;;;;;;7.50;2.70;;;;;;;23.97;30.80;99556.69;436747;1251;138886;-65
2023/06/06 17:06:34;;;;;;;3.50;3.00;;;;;;;23.88;31.07;99554.98;436367;1253;138513;-65
2023/06/06 17:16:40;;;;;;;3.60;2.20;;;;;;;23.73;31.34;99556.54;436834;1251;140975;-65
2023/06/06 17:26:49;;;;;;;2.60;2.40;;;;;;;23.57;31.86;99559.40;436570;1253;138809;-64
2023/06/06 17:36:55;;;;;;;9.10;3.00;;;;;;;23.44;32.20;99560.77;436469;1251;139924;-64
2023/06/06 17:47:01;;;;;;;4.90;2.80;;;;;;;23.44;32.67;99560.90;436537;1253;138421;-66
2023/06/06 17:57:07;;;;;;;6.60;2.70;;;;;;;23.39;32.79;99559.55;436210;1253;139972;-66
2023/06/06 18:07:13;;;;;;;2.50;2.30;;;;;;;23.23;33.13;99558.38;436440;1250;138459;-64
2023/06/06 18:17:19;;;;;;;3.30;2.70;;;;;;;22.98;33.45;99557.35;436613;1251;138398;-64
2023/06/06 18:27:25;;;;;;;4.80;2.80;;;;;;;22.75;33.85;99569.62;436803;1253;138679;-65
2023/06/06 18:37:31;;;;;;;4.70;3.20;;;;;;;22.52;34.39;99586.64;436474;1251;139164;-65
2023/06/06 18:47:37;;;;;;;6.00;2.90;;;;;;;22.21;35.03;99601.86;436459;1251;140130;-64
2023/06/06 18:57:43;;;;;;;7.40;2.90;;;;;;;21.85;35.61;99610.17;436441;1253;139565;-65
2023/06/06 19:07:49;;;;;;;5.60;2.90;;;;;;;21.47;36.60;99621.02;436264;1253;139156;-64
2023/06/06 19:17:55;;;;;;;3.30;2.50;;;;;;;21.09;38.03;99630.19;436372;1253;154506;-66
2023/06/06 19:28:02;;;;;;;5.10;4.20;;;;;;;20.70;39.87;99639.27;436650;1251;139119;-64
2023/06/06 19:38:07;;;;;;;8.00;3.60;;;;;;;20.27;41.47;99649.38;436810;1251;139870;-65
2023/06/06 19:48:14;;;;;;;6.90;3.30;;;;;;;19.90;43.24;99656.90;436569;1251;139051;-64
2023/06/06 19:58:20;;;;;;;9.80;4.50;;;;;;;19.58;44.92;99661.38;442490;1252;138674;-65
2023/06/06 20:08:26;;;;;;;8.10;5.70;;;;;;;19.31;46.23;99672.38;436312;1251;138698;-66
2023/06/06 20:18:32;;;;;;;4.30;3.80;;;;;;;19.09;47.83;99680.54;436537;1253;139870;-63
2023/06/06 20:28:38;;;;;;;5.60;5.00;;;;;;;18.96;48.76;99686.91;437027;1251;138382;-65
2023/06/06 20:38:49;;;;;;;6.20;4.20;;;;;;;18.82;49.92;99680.83;436543;1250;139179;-65
2023/06/06 20:48:55;;;;;;;6.30;5.20;;;;;;;18.64;50.98;99675.29;436474;1251;140053;-65
2023/06/06 20:59:01;;;;;;;8.60;4.60;;;;;;;18.50;51.91;99673.73;436529;1251;138534;-65
2023/06/06 21:09:07;;;;;;;13.40;7.20;;;;;;;18.38;52.70;99677.30;436750;1253;139645;-66
2023/06/06 21:19:13;;;;;;;9.50;5.60;;;;;;;18.25;53.59;99669.62;436961;1251;139939;-65
2023/06/06 21:29:19;;;;;;;9.10;6.80;;;;;;;18.15;54.35;99666.42;436753;1251;138283;-66
2023/06/06 21:39:25;;;;;;;8.10;5.40;;;;;;;18.02;55.18;99670.52;436720;1251;138577;-66
2023/06/06 21:49:31;;;;;;;7.50;5.90;;;;;;;17.84;55.90;99675.02;436917;1253;138791;-65
2023/06/06 21:59:37;;;;;;;9.00;5.70;;;;;;;17.69;56.72;99664.83;436694;1253;138963;-65
2023/06/06 22:09:43;;;;;;;7.50;5.50;;;;;;;17.57;57.62;99668.48;436850;1253;138913;-66
2023/06/06 22:19:49;;;;;;;9.90;5.70;;;;;;;17.43;58.37;99660.69;436703;1253;138949;-67
2023/06/06 22:29:54;;;;;;;10.10;7.00;;;;;;;17.36;59.05;99658.80;436737;1253;139145;-65
2023/06/06 22:40:00;;;;;;;13.20;7.20;;;;;;;17.31;59.55;99657.91;436853;1253;139322;-65
2023/06/06 22:50:08;;;;;;;8.10;6.60;;;;;;;17.25;60.15;99650.10;436530;1254;139603;-65
2023/06/06 23:00:15;;;;;;;9.30;6.70;;;;;;;17.17;60.75;99645.30;436925;1255;139115;-66
2023/06/06 23:10:25;;;;;;;11.40;6.00;;;;;;;17.05;61.35;99638.95;436605;1253;139124;-64
2023/06/06 23:20:31;;;;;;;8.00;6.60;;;;;;;16.96;61.82;99635.27;436680;1254;140295;-66
2023/06/06 23:30:37;;;;;;;8.80;5.80;;;;;;;16.84;62.55;99622.65;436600;1253;139569;-65
2023/06/06 23:40:43;;;;;;;11.80;5.60;;;;;;;16.74;63.06;99619.94;436941;1253;139985;-65
2023/06/06 23:50:48;;;;;;;9.40;7.40;;;;;;;16.68;63.54;99618.56;436950;1254;139714;-65
